TAM3630 SBSP-SBRP
Flight info
| Callsign | TAM3630 |
|---|---|
| Flight time | 0h 34m |
| Altitude | 26000 |
| Route | GERTU UZ25 KOMTO |
| Aircraft | A320/M-SDE3FGHIRWY/LB1 |
Departure
| Time | 2026-04-19 21:25 |
|---|---|
| Airport | Congonhas–Deputado Freitas Nobre Airport (SBSP) |
Arrival
| Time | 2026-04-19 21:59 |
|---|---|
| Airport | Leite Lopes Airport (SBRP) |
| Time | Latitude | Longitude | Altitude | Speed | Heading |
|---|---|---|---|---|---|
| 2026-04-19 21:11 | -23.62600 | -46.65906 | 2600 ft | 0 kts | 237° |
| 2026-04-19 21:18 | -23.62597 | -46.65901 | 2601 ft | 4 kts | 237° |
| 2026-04-19 21:19 | -23.62583 | -46.65876 | 2601 ft | 4 kts | 257° |
| 2026-04-19 21:19 | -23.62586 | -46.65858 | 2601 ft | 2 kts | 327° |
| 2026-04-19 21:19 | -23.62600 | -46.65849 | 2601 ft | 0 kts | 327° |
| 2026-04-19 21:21 | -23.62594 | -46.65850 | 2601 ft | 2 kts | 348° |
| 2026-04-19 21:21 | -23.62573 | -46.65842 | 2601 ft | 5 kts | 20° |
| 2026-04-19 21:21 | -23.62533 | -46.65848 | 2602 ft | 7 kts | 335° |
| 2026-04-19 21:22 | -23.62486 | -46.65879 | 2601 ft | 8 kts | 327° |
| 2026-04-19 21:22 | -23.62437 | -46.65913 | 2601 ft | 9 kts | 328° |
| 2026-04-19 21:22 | -23.62376 | -46.65955 | 2600 ft | 11 kts | 326° |
| 2026-04-19 21:22 | -23.62317 | -46.65996 | 2600 ft | 10 kts | 328° |
| 2026-04-19 21:23 | -23.62263 | -46.66033 | 2600 ft | 9 kts | 328° |
| 2026-04-19 21:23 | -23.62212 | -46.66060 | 2599 ft | 8 kts | 333° |
| 2026-04-19 21:23 | -23.62155 | -46.66099 | 2599 ft | 12 kts | 327° |
| 2026-04-19 21:23 | -23.62081 | -46.66136 | 2595 ft | 12 kts | 358° |
| 2026-04-19 21:24 | -23.62040 | -46.66086 | 2596 ft | 9 kts | 131° |
| 2026-04-19 21:24 | -23.62097 | -46.66043 | 2597 ft | 13 kts | 148° |
| 2026-04-19 21:24 | -23.62384 | -46.65843 | 2602 ft | 92 kts | 147° |
| 2026-04-19 21:24 | -23.63140 | -46.65318 | 2668 ft | 158 kts | 148° |
| 2026-04-19 21:25 | -23.64070 | -46.64665 | 3607 ft | 158 kts | 149° |
| 2026-04-19 21:25 | -23.65071 | -46.64301 | 4334 ft | 153 kts | 182° |
| 2026-04-19 21:25 | -23.66190 | -46.64366 | 4660 ft | 171 kts | 185° |
| 2026-04-19 21:25 | -23.67456 | -46.64442 | 4878 ft | 194 kts | 185° |
| 2026-04-19 21:26 | -23.68885 | -46.64524 | 5089 ft | 219 kts | 185° |
| 2026-04-19 21:26 | -23.70493 | -46.64616 | 5458 ft | 244 kts | 185° |
| 2026-04-19 21:26 | -23.72261 | -46.64715 | 5997 ft | 263 kts | 185° |
| 2026-04-19 21:26 | -23.74108 | -46.64857 | 6797 ft | 268 kts | 193° |
| 2026-04-19 21:27 | -23.75737 | -46.65738 | 7593 ft | 269 kts | 225° |
| 2026-04-19 21:27 | -23.76667 | -46.67533 | 8427 ft | 275 kts | 254° |
| 2026-04-19 21:27 | -23.77108 | -46.69549 | 9284 ft | 278 kts | 252° |
| 2026-04-19 21:27 | -23.77875 | -46.71529 | 10111 ft | 282 kts | 242° |
| 2026-04-19 21:28 | -23.78843 | -46.73477 | 10462 ft | 304 kts | 238° |
| 2026-04-19 21:28 | -23.79961 | -46.75474 | 10923 ft | 318 kts | 236° |
| 2026-04-19 21:28 | -23.81188 | -46.77506 | 11636 ft | 323 kts | 234° |
| 2026-04-19 21:28 | -23.82460 | -46.79550 | 12370 ft | 327 kts | 233° |
| 2026-04-19 21:29 | -23.83750 | -46.81615 | 13115 ft | 331 kts | 233° |
| 2026-04-19 21:29 | -23.85037 | -46.83711 | 13835 ft | 335 kts | 236° |
| 2026-04-19 21:29 | -23.85956 | -46.86082 | 14433 ft | 345 kts | 253° |
| 2026-04-19 21:29 | -23.86180 | -46.88720 | 15037 ft | 355 kts | 270° |
| 2026-04-19 21:30 | -23.85639 | -46.91376 | 15661 ft | 365 kts | 289° |
| 2026-04-19 21:30 | -23.84428 | -46.93845 | 16283 ft | 371 kts | 297° |
| 2026-04-19 21:30 | -23.83102 | -46.96276 | 16933 ft | 374 kts | 297° |
| 2026-04-19 21:30 | -23.81762 | -46.98725 | 17576 ft | 377 kts | 298° |
| 2026-04-19 21:31 | -23.80417 | -47.01189 | 18200 ft | 381 kts | 297° |
| 2026-04-19 21:31 | -23.79057 | -47.03693 | 18766 ft | 384 kts | 297° |
| 2026-04-19 21:31 | -23.77693 | -47.06204 | 19310 ft | 386 kts | 297° |
| 2026-04-19 21:31 | -23.76272 | -47.08708 | 19854 ft | 391 kts | 303° |
| 2026-04-19 21:32 | -23.74434 | -47.10926 | 20390 ft | 399 kts | 316° |
| 2026-04-19 21:32 | -23.72140 | -47.12667 | 20918 ft | 406 kts | 330° |
| 2026-04-19 21:32 | -23.69497 | -47.13802 | 21435 ft | 413 kts | 343° |
| 2026-04-19 21:32 | -23.66663 | -47.14446 | 21945 ft | 417 kts | 347° |
| 2026-04-19 21:33 | -23.63804 | -47.15063 | 22423 ft | 421 kts | 346° |
| 2026-04-19 21:33 | -23.60920 | -47.15690 | 22910 ft | 424 kts | 346° |
| 2026-04-19 21:33 | -23.58015 | -47.16329 | 23406 ft | 428 kts | 346° |
| 2026-04-19 21:33 | -23.55088 | -47.16976 | 23826 ft | 431 kts | 346° |
| 2026-04-19 21:34 | -23.52140 | -47.17625 | 24260 ft | 433 kts | 346° |
| 2026-04-19 21:34 | -23.49179 | -47.18273 | 24702 ft | 434 kts | 346° |
| 2026-04-19 21:34 | -23.46250 | -47.18916 | 25144 ft | 435 kts | 346° |
| 2026-04-19 21:34 | -23.43278 | -47.19570 | 25595 ft | 437 kts | 346° |
| 2026-04-19 21:35 | -23.40292 | -47.20225 | 25911 ft | 438 kts | 346° |
| 2026-04-19 21:35 | -23.37312 | -47.20877 | 25983 ft | 431 kts | 346° |
| 2026-04-19 21:35 | -23.34433 | -47.21500 | 26001 ft | 416 kts | 346° |
| 2026-04-19 21:35 | -23.31615 | -47.22111 | 26000 ft | 411 kts | 345° |
| 2026-04-19 21:36 | -23.28817 | -47.22720 | 25984 ft | 409 kts | 346° |
| 2026-04-19 21:36 | -23.26033 | -47.23330 | 25993 ft | 408 kts | 345° |
| 2026-04-19 21:36 | -23.23247 | -47.23943 | 25990 ft | 408 kts | 345° |
| 2026-04-19 21:36 | -23.20470 | -47.24552 | 25981 ft | 407 kts | 345° |
| 2026-04-19 21:37 | -23.17694 | -47.25159 | 26008 ft | 407 kts | 346° |
| 2026-04-19 21:37 | -23.14914 | -47.25764 | 26022 ft | 407 kts | 345° |
| 2026-04-19 21:37 | -23.12133 | -47.26367 | 26016 ft | 407 kts | 346° |
| 2026-04-19 21:37 | -23.09353 | -47.26970 | 26019 ft | 407 kts | 346° |
| 2026-04-19 21:38 | -23.06578 | -47.27572 | 26007 ft | 407 kts | 346° |
| 2026-04-19 21:38 | -23.03801 | -47.28176 | 26012 ft | 407 kts | 346° |
| 2026-04-19 21:38 | -23.01028 | -47.28778 | 26011 ft | 407 kts | 346° |
| 2026-04-19 21:38 | -22.98287 | -47.29371 | 26009 ft | 407 kts | 346° |
| 2026-04-19 21:39 | -22.95474 | -47.29981 | 26007 ft | 407 kts | 346° |
| 2026-04-19 21:39 | -22.92738 | -47.30576 | 26001 ft | 407 kts | 346° |
| 2026-04-19 21:39 | -22.89965 | -47.31180 | 26002 ft | 407 kts | 346° |
| 2026-04-19 21:39 | -22.87188 | -47.31783 | 25991 ft | 406 kts | 346° |
| 2026-04-19 21:40 | -22.81643 | -47.32984 | 25977 ft | 406 kts | 346° |
| 2026-04-19 21:40 | -22.78872 | -47.33583 | 25975 ft | 406 kts | 346° |
| 2026-04-19 21:40 | -22.76102 | -47.34183 | 25966 ft | 406 kts | 346° |
| 2026-04-19 21:41 | -22.73335 | -47.34783 | 25962 ft | 406 kts | 346° |
| 2026-04-19 21:41 | -22.70561 | -47.35385 | 25960 ft | 406 kts | 345° |
| 2026-04-19 21:41 | -22.67865 | -47.36250 | 25964 ft | 402 kts | 334° |
| 2026-04-19 21:41 | -22.65400 | -47.37622 | 25961 ft | 397 kts | 323° |
| 2026-04-19 21:42 | -22.63185 | -47.39393 | 25958 ft | 395 kts | 319° |
| 2026-04-19 21:42 | -22.61019 | -47.41211 | 25963 ft | 395 kts | 319° |
| 2026-04-19 21:42 | -22.58845 | -47.43032 | 25963 ft | 395 kts | 319° |
| 2026-04-19 21:42 | -22.56673 | -47.44847 | 25963 ft | 395 kts | 319° |
| 2026-04-19 21:43 | -22.54500 | -47.46660 | 25963 ft | 395 kts | 319° |
| 2026-04-19 21:43 | -22.52322 | -47.48475 | 25966 ft | 395 kts | 319° |
| 2026-04-19 21:43 | -22.50149 | -47.50289 | 25964 ft | 395 kts | 319° |
| 2026-04-19 21:43 | -22.47978 | -47.52103 | 25965 ft | 394 kts | 319° |
| 2026-04-19 21:44 | -22.45803 | -47.53918 | 25969 ft | 395 kts | 320° |
| 2026-04-19 21:44 | -22.43464 | -47.55492 | 25961 ft | 399 kts | 331° |
| 2026-04-19 21:44 | -22.40854 | -47.56539 | 25960 ft | 403 kts | 343° |
| 2026-04-19 21:44 | -22.38086 | -47.57081 | 25962 ft | 405 kts | 348° |
| 2026-04-19 21:45 | -22.35303 | -47.57542 | 25958 ft | 405 kts | 348° |
| 2026-04-19 21:45 | -22.32500 | -47.58011 | 25978 ft | 413 kts | 348° |
| 2026-04-19 21:45 | -22.29629 | -47.58496 | 25966 ft | 417 kts | 348° |
| 2026-04-19 21:45 | -22.26741 | -47.58983 | 25019 ft | 425 kts | 349° |
| 2026-04-19 21:46 | -22.23772 | -47.59483 | 23947 ft | 438 kts | 349° |
| 2026-04-19 21:46 | -22.20766 | -47.59989 | 22787 ft | 449 kts | 349° |
| 2026-04-19 21:46 | -22.17672 | -47.60509 | 21953 ft | 450 kts | 350° |
| 2026-04-19 21:46 | -22.14588 | -47.61023 | 21288 ft | 447 kts | 350° |
| 2026-04-19 21:47 | -22.11528 | -47.61534 | 20672 ft | 443 kts | 350° |
| 2026-04-19 21:47 | -22.08502 | -47.62040 | 20073 ft | 439 kts | 350° |
| 2026-04-19 21:47 | -22.05494 | -47.62540 | 19491 ft | 435 kts | 351° |
| 2026-04-19 21:47 | -22.02521 | -47.63034 | 18925 ft | 430 kts | 351° |
| 2026-04-19 21:48 | -21.99576 | -47.63525 | 18382 ft | 427 kts | 351° |
| 2026-04-19 21:48 | -21.96649 | -47.64013 | 17764 ft | 424 kts | 351° |
| 2026-04-19 21:48 | -21.93748 | -47.64497 | 17142 ft | 421 kts | 351° |
| 2026-04-19 21:48 | -21.90868 | -47.64980 | 16553 ft | 417 kts | 351° |
| 2026-04-19 21:49 | -21.88011 | -47.65458 | 15979 ft | 414 kts | 351° |
| 2026-04-19 21:49 | -21.85171 | -47.65933 | 15426 ft | 411 kts | 351° |
| 2026-04-19 21:49 | -21.82360 | -47.66404 | 14896 ft | 408 kts | 351° |
| 2026-04-19 21:49 | -21.79566 | -47.66870 | 14354 ft | 405 kts | 351° |
| 2026-04-19 21:50 | -21.77722 | -47.67179 | 14010 ft | 403 kts | 351° |
| 2026-04-19 21:50 | -21.74032 | -47.67793 | 13267 ft | 399 kts | 351° |
| 2026-04-19 21:50 | -21.72222 | -47.68092 | 12908 ft | 396 kts | 351° |
| 2026-04-19 21:50 | -21.69514 | -47.68538 | 12380 ft | 392 kts | 351° |
| 2026-04-19 21:51 | -21.66840 | -47.68982 | 11799 ft | 388 kts | 350° |
| 2026-04-19 21:51 | -21.64157 | -47.69431 | 11063 ft | 390 kts | 350° |
| 2026-04-19 21:51 | -21.61492 | -47.69875 | 10483 ft | 386 kts | 351° |
| 2026-04-19 21:51 | -21.58822 | -47.69982 | 9928 ft | 382 kts | 1° |
| 2026-04-19 21:52 | -21.56181 | -47.69906 | 9289 ft | 376 kts | 0° |
| 2026-04-19 21:52 | -21.53606 | -47.69833 | 8200 ft | 367 kts | 1° |
| 2026-04-19 21:52 | -21.51061 | -47.69764 | 7440 ft | 366 kts | 1° |
| 2026-04-19 21:52 | -21.48503 | -47.69697 | 7146 ft | 367 kts | 1° |
| 2026-04-19 21:53 | -21.46046 | -47.69635 | 6979 ft | 337 kts | 1° |
| 2026-04-19 21:53 | -21.43803 | -47.69576 | 6839 ft | 308 kts | 0° |
| 2026-04-19 21:53 | -21.41749 | -47.69522 | 6722 ft | 283 kts | 1° |
| 2026-04-19 21:53 | -21.39826 | -47.69469 | 6343 ft | 271 kts | 1° |
| 2026-04-19 21:54 | -21.37971 | -47.69569 | 5758 ft | 267 kts | 349° |
| 2026-04-19 21:54 | -21.36174 | -47.70099 | 5059 ft | 269 kts | 342° |
| 2026-04-19 21:54 | -21.34405 | -47.70679 | 4360 ft | 261 kts | 343° |
| 2026-04-19 21:54 | -21.32738 | -47.71217 | 4141 ft | 239 kts | 343° |
| 2026-04-19 21:55 | -21.31210 | -47.71708 | 4078 ft | 221 kts | 343° |
| 2026-04-19 21:55 | -21.29811 | -47.72157 | 4008 ft | 199 kts | 343° |
| 2026-04-19 21:55 | -21.28549 | -47.72559 | 3910 ft | 179 kts | 343° |
| 2026-04-19 21:55 | -21.27402 | -47.72926 | 3853 ft | 172 kts | 342° |
| 2026-04-19 21:56 | -21.26236 | -47.73301 | 3766 ft | 177 kts | 342° |
| 2026-04-19 21:56 | -21.25058 | -47.73680 | 3684 ft | 177 kts | 342° |
| 2026-04-19 21:56 | -21.23880 | -47.74058 | 3598 ft | 177 kts | 343° |
| 2026-04-19 21:56 | -21.22704 | -47.74434 | 3517 ft | 177 kts | 343° |
| 2026-04-19 21:57 | -21.21524 | -47.74811 | 3382 ft | 177 kts | 342° |
| 2026-04-19 21:57 | -21.20349 | -47.75188 | 3122 ft | 176 kts | 342° |
| 2026-04-19 21:57 | -21.19179 | -47.75564 | 2875 ft | 175 kts | 342° |
| 2026-04-19 21:57 | -21.18023 | -47.75934 | 2656 ft | 169 kts | 342° |
| 2026-04-19 21:58 | -21.16939 | -47.76279 | 2441 ft | 157 kts | 341° |
| 2026-04-19 21:58 | -21.15913 | -47.76606 | 2208 ft | 152 kts | 341° |
| 2026-04-19 21:58 | -21.14913 | -47.76935 | 1996 ft | 149 kts | 342° |
| 2026-04-19 21:58 | -21.13928 | -47.77245 | 1831 ft | 141 kts | 341° |
| 2026-04-19 21:59 | -21.13209 | -47.77473 | 1826 ft | 65 kts | 343° |
| 2026-04-19 21:59 | -21.12905 | -47.77572 | 1829 ft | 42 kts | 343° |
| 2026-04-19 21:59 | -21.12672 | -47.77647 | 1828 ft | 21 kts | 346° |
| 2026-04-19 21:59 | -21.12552 | -47.77705 | 1827 ft | 16 kts | 308° |
| 2026-04-19 22:00 | -21.12595 | -47.77783 | 1827 ft | 14 kts | 224° |
| 2026-04-19 22:00 | -21.12690 | -47.77815 | 1827 ft | 16 kts | 169° |
| 2026-04-19 22:00 | -21.12803 | -47.77779 | 1827 ft | 18 kts | 163° |
| 2026-04-19 22:00 | -21.12930 | -47.77739 | 1827 ft | 20 kts | 163° |
| 2026-04-19 22:01 | -21.13070 | -47.77694 | 1827 ft | 22 kts | 163° |
| 2026-04-19 22:01 | -21.13218 | -47.77647 | 1827 ft | 23 kts | 163° |
| 2026-04-19 22:01 | -21.13374 | -47.77597 | 1826 ft | 24 kts | 163° |
| 2026-04-19 22:01 | -21.13523 | -47.77549 | 1826 ft | 19 kts | 163° |
| 2026-04-19 22:02 | -21.13639 | -47.77512 | 1826 ft | 15 kts | 164° |
| 2026-04-19 22:02 | -21.13672 | -47.77520 | 1834 ft | 1 kts | 252° |
| 2026-04-19 22:02 | -21.13679 | -47.77537 | 1826 ft | 3 kts | 249° |
| 2026-04-19 22:02 | -21.13681 | -47.77581 | 1826 ft | 9 kts | 297° |
| 2026-04-19 22:03 | -21.13686 | -47.77580 | 1826 ft | 7 kts | 80° |
| 2026-04-19 22:03 | -21.13686 | -47.77507 | 1826 ft | 10 kts | 118° |
| 2026-04-19 22:03 | -21.13741 | -47.77479 | 1826 ft | 9 kts | 163° |
| 2026-04-19 22:03 | -21.13806 | -47.77458 | 1826 ft | 11 kts | 163° |
| 2026-04-19 22:04 | -21.13860 | -47.77494 | 1826 ft | 11 kts | 250° |
| 2026-04-19 22:04 | -21.13872 | -47.77564 | 1826 ft | 8 kts | 270° |
| 2026-04-19 22:04 | -21.13874 | -47.77572 | 1826 ft | 0 kts | 257° |
| 2026-04-19 22:04 | -21.13878 | -47.77582 | 1826 ft | 2 kts | 250° |
| 2026-04-19 22:05 | -21.13881 | -47.77594 | 1826 ft | 2 kts | 253° |
| 2026-04-19 22:05 | -21.13883 | -47.77599 | 1826 ft | 0 kts | 253° |
| 2026-04-19 22:18 | -21.13879 | -47.77587 | 1826 ft | 4 kts | 244° |
| 2026-04-19 22:18 | -21.13870 | -47.77572 | 1826 ft | 2 kts | 216° |
| 2026-04-19 22:21 | -21.13877 | -47.77574 | 1826 ft | 1 kts | 188° |
| 2026-04-19 22:21 | -21.13879 | -47.77567 | 1826 ft | 1 kts | 119° |
| 2026-04-19 22:21 | -21.13877 | -47.77556 | 1826 ft | 2 kts | 74° |
| 2026-04-19 22:22 | -21.13873 | -47.77545 | 1826 ft | 1 kts | 72° |
| 2026-04-19 22:22 | -21.13872 | -47.77540 | 1826 ft | 0 kts | 72° |
| 2026-04-19 22:22 | -21.13872 | -47.77539 | 1826 ft | 0 kts | 72° |
| 2026-04-19 22:22 | -21.13871 | -47.77538 | 1826 ft | 1 kts | 72° |
| 2026-04-19 22:23 | -21.13864 | -47.77514 | 1826 ft | 6 kts | 72° |
| 2026-04-19 22:23 | -21.13857 | -47.77456 | 1826 ft | 9 kts | 108° |
| 2026-04-19 22:23 | -21.13916 | -47.77424 | 1826 ft | 10 kts | 163° |
| 2026-04-19 22:23 | -21.13985 | -47.77401 | 1826 ft | 11 kts | 163° |
| 2026-04-19 22:24 | -21.14060 | -47.77376 | 1826 ft | 12 kts | 163° |
| 2026-04-19 22:24 | -21.14144 | -47.77350 | 1826 ft | 13 kts | 163° |
| 2026-04-19 22:24 | -21.14235 | -47.77321 | 1826 ft | 14 kts | 161° |
| 2026-04-19 22:24 | -21.14288 | -47.77246 | 1826 ft | 9 kts | 101° |
| 2026-04-19 22:25 | -21.14301 | -47.77182 | 1826 ft | 8 kts | 102° |
| 2026-04-19 22:25 | -21.14305 | -47.77130 | 1825 ft | 6 kts | 62° |
| 2026-04-19 22:25 | -21.14283 | -47.77127 | 1826 ft | 0 kts | 341° |
| 2026-04-19 22:26 | -21.14277 | -47.77129 | 1826 ft | 11 kts | 341° |
| 2026-04-19 22:26 | -21.13908 | -47.77249 | 1827 ft | 96 kts | 343° |
| 2026-04-19 22:26 | -21.13056 | -47.77522 | 1832 ft | 157 kts | 342° |
| 2026-04-19 22:26 | -21.11948 | -47.77878 | 2409 ft | 166 kts | 341° |
| 2026-04-19 22:27 | -21.10856 | -47.78241 | 3096 ft | 163 kts | 342° |
| 2026-04-19 22:27 | -21.09723 | -47.78615 | 3403 ft | 181 kts | 342° |
| 2026-04-19 22:27 | -21.08448 | -47.79036 | 3582 ft | 204 kts | 342° |
| 2026-04-19 22:27 | -21.07015 | -47.79508 | 3763 ft | 228 kts | 342° |
| 2026-04-19 22:28 | -21.05416 | -47.80027 | 4054 ft | 253 kts | 345° |
| 2026-04-19 22:28 | -21.03607 | -47.80386 | 4446 ft | 275 kts | 352° |
| 2026-04-19 22:28 | -21.01672 | -47.80601 | 5150 ft | 283 kts | 355° |
| 2026-04-19 22:28 | -20.99694 | -47.80769 | 5970 ft | 287 kts | 355° |
| 2026-04-19 22:29 | -20.97692 | -47.80908 | 6792 ft | 290 kts | 0° |
| 2026-04-19 22:29 | -20.95711 | -47.80478 | 7567 ft | 294 kts | 24° |
| 2026-04-19 22:29 | -20.94040 | -47.79226 | 8377 ft | 296 kts | 49° |
| 2026-04-19 22:29 | -20.92987 | -47.77351 | 9188 ft | 297 kts | 73° |
| 2026-04-19 22:30 | -20.92738 | -47.75170 | 9972 ft | 298 kts | 97° |
| 2026-04-19 22:30 | -20.93270 | -47.73008 | 10502 ft | 310 kts | 111° |
| 2026-04-19 22:30 | -20.94019 | -47.70753 | 10771 ft | 331 kts | 111° |
| 2026-04-19 22:30 | -20.94814 | -47.68405 | 11337 ft | 340 kts | 111° |
| 2026-04-19 22:31 | -20.95621 | -47.66013 | 12027 ft | 344 kts | 111° |
| 2026-04-19 22:31 | -20.96429 | -47.63594 | 12741 ft | 347 kts | 111° |
| 2026-04-19 22:31 | -20.97238 | -47.61151 | 13441 ft | 350 kts | 111° |
| 2026-04-19 22:31 | -20.98053 | -47.58682 | 14076 ft | 353 kts | 111° |
| 2026-04-19 22:32 | -20.98873 | -47.56191 | 14649 ft | 357 kts | 111° |
| 2026-04-19 22:32 | -20.99702 | -47.53675 | 15252 ft | 360 kts | 111° |
| 2026-04-19 22:32 | -21.00525 | -47.51177 | 15855 ft | 362 kts | 111° |
| 2026-04-19 22:32 | -21.01368 | -47.48624 | 16449 ft | 365 kts | 112° |
| 2026-04-19 22:33 | -21.02218 | -47.46055 | 17019 ft | 368 kts | 111° |
| 2026-04-19 22:33 | -21.03077 | -47.43457 | 17587 ft | 372 kts | 111° |
| 2026-04-19 22:33 | -21.03943 | -47.40840 | 18172 ft | 375 kts | 111° |
| 2026-04-19 22:33 | -21.04814 | -47.38195 | 18683 ft | 378 kts | 111° |
| 2026-04-19 22:34 | -21.05691 | -47.35528 | 19164 ft | 382 kts | 112° |
| 2026-04-19 22:34 | -21.06578 | -47.32836 | 19644 ft | 385 kts | 112° |
| 2026-04-19 22:34 | -21.07474 | -47.30121 | 20141 ft | 388 kts | 112° |
| 2026-04-19 22:34 | -21.08375 | -47.27384 | 20621 ft | 391 kts | 112° |
| 2026-04-19 22:35 | -21.09279 | -47.24622 | 21096 ft | 395 kts | 112° |
| 2026-04-19 22:35 | -21.10188 | -47.21836 | 21565 ft | 398 kts | 112° |
| 2026-04-19 22:35 | -21.11104 | -47.19035 | 22022 ft | 401 kts | 112° |
| 2026-04-19 22:35 | -21.12032 | -47.16203 | 22474 ft | 404 kts | 112° |
| 2026-04-19 22:36 | -21.12966 | -47.13358 | 22958 ft | 407 kts | 112° |
| 2026-04-19 22:36 | -21.13905 | -47.10494 | 23411 ft | 409 kts | 112° |
| 2026-04-19 22:36 | -21.14851 | -47.07605 | 23797 ft | 412 kts | 112° |
| 2026-04-19 22:36 | -21.15803 | -47.04691 | 24163 ft | 416 kts | 112° |
| 2026-04-19 22:37 | -21.16760 | -47.01757 | 24516 ft | 419 kts | 112° |
| 2026-04-19 22:37 | -21.17725 | -46.98801 | 24863 ft | 422 kts | 112° |
| 2026-04-19 22:37 | -21.18369 | -46.96834 | 25100 ft | 424 kts | 112° |
| 2026-04-19 22:37 | -21.19348 | -46.93833 | 25443 ft | 427 kts | 112° |
| 2026-04-19 22:38 | -21.20330 | -46.90814 | 25810 ft | 430 kts | 112° |
| 2026-04-19 22:38 | -21.21316 | -46.87779 | 26161 ft | 433 kts | 112° |
| 2026-04-19 22:38 | -21.22311 | -46.84719 | 26501 ft | 437 kts | 112° |
| 2026-04-19 22:38 | -21.23317 | -46.81628 | 26830 ft | 440 kts | 112° |
| 2026-04-19 22:39 | -21.24326 | -46.78524 | 27182 ft | 443 kts | 112° |
| 2026-04-19 22:39 | -21.25343 | -46.75394 | 27525 ft | 446 kts | 112° |
| 2026-04-19 22:39 | -21.26369 | -46.72239 | 27870 ft | 449 kts | 112° |
| 2026-04-19 22:39 | -21.27402 | -46.69064 | 28187 ft | 452 kts | 112° |
| 2026-04-19 22:40 | -21.28437 | -46.65870 | 28520 ft | 455 kts | 112° |
| 2026-04-19 22:40 | -21.29478 | -46.62652 | 28850 ft | 459 kts | 111° |
| 2026-04-19 22:40 | -21.30527 | -46.59404 | 29175 ft | 462 kts | 111° |
| 2026-04-19 22:40 | -21.31578 | -46.56141 | 29493 ft | 465 kts | 111° |
| 2026-04-19 22:41 | -21.32636 | -46.52853 | 29812 ft | 467 kts | 111° |
| 2026-04-19 22:41 | -21.33701 | -46.49555 | 30103 ft | 470 kts | 111° |
| 2026-04-19 22:41 | -21.34776 | -46.46230 | 30350 ft | 473 kts | 112° |
| 2026-04-19 22:41 | -21.35855 | -46.42888 | 30605 ft | 475 kts | 112° |
| 2026-04-19 22:42 | -21.36935 | -46.39530 | 30850 ft | 477 kts | 112° |
| 2026-04-19 22:42 | -21.38020 | -46.36150 | 31102 ft | 480 kts | 112° |
| 2026-04-19 22:42 | -21.39110 | -46.32763 | 31346 ft | 482 kts | 112° |
| 2026-04-19 22:42 | -21.40207 | -46.29361 | 31656 ft | 482 kts | 112° |
| 2026-04-19 22:43 | -21.41300 | -46.25965 | 31937 ft | 482 kts | 112° |
| 2026-04-19 22:43 | -21.43435 | -46.19285 | 32009 ft | 460 kts | 112° |
| 2026-04-19 22:44 | -21.45484 | -46.12847 | 32007 ft | 453 kts | 113° |
| 2026-04-19 22:44 | -21.48394 | -46.07019 | 32001 ft | 437 kts | 139° |
| 2026-04-19 22:44 | -21.50677 | -46.04941 | 32001 ft | 427 kts | 153° |
| 2026-04-19 22:45 | -21.53307 | -46.03551 | 32014 ft | 418 kts | 167° |
| 2026-04-19 22:45 | -21.56112 | -46.02899 | 32014 ft | 409 kts | 180° |
| 2026-04-19 22:45 | -21.58924 | -46.02991 | 32021 ft | 402 kts | 193° |
| 2026-04-19 22:46 | -21.64352 | -46.04315 | 32007 ft | 400 kts | 197° |
| 2026-04-19 22:46 | -21.69782 | -46.05685 | 32022 ft | 401 kts | 197° |
| 2026-04-19 22:47 | -21.75213 | -46.07055 | 32018 ft | 401 kts | 197° |
| 2026-04-19 22:47 | -21.80713 | -46.08432 | 32036 ft | 415 kts | 196° |
| 2026-04-19 22:48 | -21.86448 | -46.09871 | 32031 ft | 428 kts | 196° |
| 2026-04-19 22:48 | -21.92264 | -46.11336 | 32049 ft | 430 kts | 196° |
| 2026-04-19 22:49 | -21.98059 | -46.12795 | 32046 ft | 430 kts | 196° |
| 2026-04-19 22:49 | -22.03892 | -46.14263 | 32044 ft | 431 kts | 196° |
| 2026-04-19 22:50 | -22.09729 | -46.15737 | 32050 ft | 431 kts | 196° |
| 2026-04-19 22:50 | -22.15607 | -46.17232 | 32051 ft | 431 kts | 196° |
| 2026-04-19 22:51 | -22.21414 | -46.18697 | 32067 ft | 431 kts | 196° |
| 2026-04-19 22:51 | -22.30088 | -46.20881 | 31352 ft | 414 kts | 196° |
| 2026-04-19 22:52 | -22.32892 | -46.21493 | 30460 ft | 410 kts | 192° |
| 2026-04-19 22:52 | -22.35695 | -46.21951 | 29498 ft | 405 kts | 191° |
| 2026-04-19 22:52 | -22.38467 | -46.22382 | 28710 ft | 396 kts | 191° |
| 2026-04-19 22:52 | -22.41128 | -46.22783 | 28447 ft | 379 kts | 191° |
| 2026-04-19 22:53 | -22.43714 | -46.23172 | 28189 ft | 373 kts | 191° |
| 2026-04-19 22:53 | -22.46269 | -46.23561 | 27935 ft | 370 kts | 191° |
| 2026-04-19 22:53 | -22.48812 | -46.23953 | 27673 ft | 367 kts | 191° |
| 2026-04-19 22:53 | -22.51352 | -46.24348 | 26846 ft | 379 kts | 190° |
| 2026-04-19 22:54 | -22.54037 | -46.24767 | 25881 ft | 395 kts | 190° |
| 2026-04-19 22:54 | -22.56777 | -46.25191 | 24540 ft | 400 kts | 189° |
| 2026-04-19 22:54 | -22.59532 | -46.25617 | 23438 ft | 398 kts | 189° |
| 2026-04-19 22:54 | -22.62251 | -46.26040 | 22296 ft | 393 kts | 189° |
| 2026-04-19 22:55 | -22.64943 | -46.26459 | 21206 ft | 388 kts | 189° |
| 2026-04-19 22:55 | -22.67625 | -46.26876 | 20602 ft | 387 kts | 189° |
| 2026-04-19 22:55 | -22.70239 | -46.27282 | 20475 ft | 372 kts | 189° |
| 2026-04-19 22:55 | -22.72755 | -46.27673 | 20339 ft | 359 kts | 189° |
| 2026-04-19 22:56 | -22.75202 | -46.28054 | 20032 ft | 353 kts | 189° |
| 2026-04-19 22:56 | -22.77597 | -46.28526 | 19656 ft | 348 kts | 197° |
| 2026-04-19 22:56 | -22.79814 | -46.29534 | 19237 ft | 346 kts | 210° |
| 2026-04-19 22:56 | -22.81862 | -46.30890 | 18794 ft | 345 kts | 211° |
| 2026-04-19 22:57 | -22.83904 | -46.32250 | 18367 ft | 343 kts | 211° |
| 2026-04-19 22:57 | -22.85934 | -46.33598 | 17884 ft | 342 kts | 211° |
| 2026-04-19 22:57 | -22.87961 | -46.34935 | 17457 ft | 339 kts | 210° |
| 2026-04-19 22:57 | -22.89956 | -46.36214 | 17310 ft | 328 kts | 210° |
| 2026-04-19 22:58 | -22.91907 | -46.37428 | 17091 ft | 320 kts | 208° |
| 2026-04-19 22:58 | -22.93833 | -46.38613 | 16751 ft | 317 kts | 208° |
| 2026-04-19 22:58 | -22.95744 | -46.39786 | 16416 ft | 315 kts | 208° |
| 2026-04-19 22:58 | -22.97639 | -46.40954 | 16065 ft | 313 kts | 208° |
| 2026-04-19 22:59 | -22.99525 | -46.42120 | 15723 ft | 311 kts | 208° |
| 2026-04-19 22:59 | -23.01401 | -46.43282 | 15380 ft | 309 kts | 208° |
| 2026-04-19 22:59 | -23.03260 | -46.44439 | 15050 ft | 308 kts | 208° |
| 2026-04-19 22:59 | -23.05111 | -46.45596 | 14738 ft | 306 kts | 208° |
| 2026-04-19 23:00 | -23.06949 | -46.46746 | 14425 ft | 304 kts | 208° |
| 2026-04-19 23:00 | -23.08774 | -46.47892 | 14106 ft | 303 kts | 208° |
| 2026-04-19 23:00 | -23.10593 | -46.49033 | 13771 ft | 301 kts | 208° |
| 2026-04-19 23:00 | -23.12376 | -46.50150 | 13433 ft | 299 kts | 208° |
| 2026-04-19 23:01 | -23.14174 | -46.51273 | 13086 ft | 298 kts | 208° |
| 2026-04-19 23:01 | -23.15968 | -46.52391 | 12742 ft | 296 kts | 209° |
| 2026-04-19 23:01 | -23.17748 | -46.53499 | 12395 ft | 295 kts | 208° |
| 2026-04-19 23:01 | -23.19521 | -46.54605 | 12055 ft | 293 kts | 209° |
| 2026-04-19 23:02 | -23.21285 | -46.55707 | 11715 ft | 292 kts | 209° |
| 2026-04-19 23:02 | -23.23038 | -46.56804 | 11363 ft | 290 kts | 209° |
| 2026-04-19 23:02 | -23.24774 | -46.57893 | 10931 ft | 286 kts | 209° |
| 2026-04-19 23:02 | -23.26487 | -46.58969 | 10308 ft | 283 kts | 210° |
| 2026-04-19 23:03 | -23.28163 | -46.60089 | 9669 ft | 281 kts | 212° |
| 2026-04-19 23:03 | -23.29796 | -46.61243 | 8981 ft | 279 kts | 213° |
| 2026-04-19 23:03 | -23.31417 | -46.62409 | 8268 ft | 279 kts | 213° |
| 2026-04-19 23:03 | -23.33028 | -46.63574 | 7578 ft | 277 kts | 214° |
| 2026-04-19 23:04 | -23.34628 | -46.64727 | 6948 ft | 273 kts | 214° |
| 2026-04-19 23:04 | -23.36191 | -46.65848 | 6632 ft | 265 kts | 214° |
| 2026-04-19 23:04 | -23.37688 | -46.66918 | 6547 ft | 251 kts | 214° |
| 2026-04-19 23:04 | -23.39117 | -46.67939 | 6388 ft | 240 kts | 214° |
| 2026-04-19 23:05 | -23.40490 | -46.68906 | 6225 ft | 231 kts | 210° |
| 2026-04-19 23:05 | -23.41995 | -46.69369 | 6059 ft | 226 kts | 179° |
| 2026-04-19 23:05 | -23.43493 | -46.68878 | 5846 ft | 230 kts | 147° |
| 2026-04-19 23:05 | -23.44557 | -46.67581 | 5593 ft | 233 kts | 127° |
| 2026-04-19 23:06 | -23.45468 | -46.66117 | 5334 ft | 233 kts | 127° |
| 2026-04-19 23:06 | -23.46359 | -46.64668 | 5116 ft | 229 kts | 124° |
| 2026-04-19 23:06 | -23.46937 | -46.63069 | 4889 ft | 224 kts | 101° |
| 2026-04-19 23:06 | -23.46926 | -46.61415 | 4733 ft | 215 kts | 81° |
| 2026-04-19 23:07 | -23.46539 | -46.59890 | 4576 ft | 200 kts | 77° |
| 2026-04-19 23:07 | -23.46160 | -46.58488 | 4339 ft | 186 kts | 76° |
| 2026-04-19 23:07 | -23.45807 | -46.57175 | 4122 ft | 175 kts | 75° |
| 2026-04-19 23:07 | -23.45473 | -46.55938 | 3888 ft | 165 kts | 76° |
| 2026-04-19 23:08 | -23.45156 | -46.54758 | 3703 ft | 159 kts | 75° |
| 2026-04-19 23:08 | -23.44853 | -46.53632 | 3503 ft | 154 kts | 76° |
| 2026-04-19 23:08 | -23.44556 | -46.52527 | 3314 ft | 150 kts | 78° |
| 2026-04-19 23:08 | -23.44264 | -46.51444 | 3112 ft | 151 kts | 77° |
| 2026-04-19 23:09 | -23.43970 | -46.50351 | 2899 ft | 150 kts | 76° |
| 2026-04-19 23:09 | -23.43674 | -46.49258 | 2680 ft | 150 kts | 75° |
| 2026-04-19 23:09 | -23.43387 | -46.48189 | 2493 ft | 148 kts | 76° |
| 2026-04-19 23:09 | -23.43121 | -46.47198 | 2472 ft | 114 kts | 73° |
| 2026-04-19 23:10 | -23.42951 | -46.46563 | 2473 ft | 71 kts | 74° |
| 2026-04-19 23:10 | -23.42858 | -46.46217 | 2471 ft | 22 kts | 68° |
| 2026-04-19 23:10 | -23.42756 | -46.46197 | 2470 ft | 13 kts | 343° |
| 2026-04-19 23:10 | -23.42675 | -46.46225 | 2469 ft | 12 kts | 343° |
| 2026-04-19 23:11 | -23.42617 | -46.46287 | 2468 ft | 15 kts | 264° |
| 2026-04-19 23:11 | -23.42648 | -46.46404 | 2470 ft | 16 kts | 253° |
| 2026-04-19 23:11 | -23.42680 | -46.46519 | 2472 ft | 15 kts | 253° |
| 2026-04-19 23:11 | -23.42708 | -46.46625 | 2474 ft | 16 kts | 253° |
| 2026-04-19 23:12 | -23.42743 | -46.46752 | 2471 ft | 18 kts | 253° |
| 2026-04-19 23:12 | -23.42780 | -46.46890 | 2474 ft | 19 kts | 253° |
| 2026-04-19 23:12 | -23.42819 | -46.47032 | 2469 ft | 20 kts | 253° |
| 2026-04-19 23:12 | -23.42859 | -46.47185 | 2470 ft | 22 kts | 254° |
| 2026-04-19 23:13 | -23.42903 | -46.47349 | 2468 ft | 23 kts | 253° |
| 2026-04-19 23:13 | -23.42951 | -46.47525 | 2468 ft | 25 kts | 254° |
| 2026-04-19 23:13 | -23.42996 | -46.47692 | 2474 ft | 22 kts | 253° |
| 2026-04-19 23:13 | -23.43040 | -46.47852 | 2472 ft | 23 kts | 253° |
| 2026-04-19 23:14 | -23.43081 | -46.48003 | 2468 ft | 19 kts | 253° |
| 2026-04-19 23:14 | -23.43077 | -46.48120 | 2468 ft | 14 kts | 329° |
| 2026-04-19 23:14 | -23.42984 | -46.48136 | 2470 ft | 10 kts | 355° |
| 2026-04-19 23:14 | -23.42931 | -46.48155 | 2468 ft | 6 kts | 304° |
| 2026-04-19 23:15 | -23.42920 | -46.48197 | 2473 ft | 5 kts | 287° |
| 2026-04-19 23:15 | -23.42913 | -46.48220 | 2470 ft | 1 kts | 288° |
| 2026-04-19 23:15 | -23.42912 | -46.48223 | 2469 ft | 0 kts | 288° |